Time;durP1;ratioP1;P1;durP2;ratioP2;P2;SDS_P1;SDS_P2;PMS_P1;PMS_P2;Temp;Humidity;BMP_temperature;BMP_pressure;BME280_temperature;BME280_humidity;BME280_pressure;Samples;Min_cycle;Max_cycle;Signal;HPM_P1;HPM_P2
2023/04/05 00:00:35;;;;;;;;;;;;;;;24.46;30.14;99997.53;5098154;28;1142;-19
2023/04/05 00:03:01;;;;;;;;;;;;;;;24.48;29.99;99994.66;5098298;28;1050;-19
2023/04/05 00:05:30;;;;;;;;;;;;;;;24.45;30.12;99995.88;5098131;28;1142;-19
2023/04/05 00:08:00;;;;;;;;;;;;;;;24.28;30.49;99998.72;5097647;28;1035;-19
2023/04/05 00:10:26;;;;;;;;;;;;;;;24.39;30.52;99991.25;5098433;28;1034;-19
2023/04/05 00:12:52;;;;;;;;;;;;;;;24.33;30.43;99993.63;5097772;28;1050;-20
2023/04/05 00:15:17;;;;;;;;;;;;;;;24.39;30.36;99991.25;5097854;28;1150;-20
2023/04/05 00:17:43;;;;;;;;;;;;;;;24.42;30.20;100001.63;5097962;28;1153;-19
2023/04/05 00:20:10;;;;;;;;;;;;;;;24.40;30.26;100003.66;5089607;28;1905;-20
2023/04/05 00:22:35;;;;;;;;;;;;;;;24.40;29.90;100009.03;5092313;28;1052;-19
2023/04/05 00:25:01;;;;;;;;;;;;;;;24.46;29.95;100011.81;5097955;28;1134;-19
2023/04/05 00:27:27;;;;;;;;;;;;;;;24.44;29.96;100016.53;5097566;28;1125;-19
2023/04/05 00:29:53;;;;;;;;;;;;;;;24.28;30.25;100000.56;5079536;28;1524;-19
2023/04/05 00:32:18;;;;;;;;;;;;;;;24.39;30.28;100012.75;5083245;28;848;-19
2023/04/05 00:34:44;;;;;;;;;;;;;;;24.35;30.33;99998.84;5084461;28;1070;-19
2023/04/05 00:37:10;;;;;;;;;;;;;;;24.48;30.10;100008.94;5079323;28;1058;-20
2023/04/05 00:39:35;;;;;;;;;;;;;;;24.25;30.34;100014.38;5097638;28;1973;-20
2023/04/05 00:42:02;;;;;;;;;;;;;;;24.42;30.10;100009.69;5083497;28;1301;-19
2023/04/05 00:44:28;;;;;;;;;;;;;;;24.29;30.27;100002.25;5072706;28;1086;-20
2023/04/05 00:46:54;;;;;;;;;;;;;;;24.41;29.94;100014.22;5091211;28;1239;-19
2023/04/05 00:49:19;;;;;;;;;;;;;;;24.43;29.96;100008.66;5079437;28;1268;-19
2023/04/05 00:51:46;;;;;;;;;;;;;;;24.30;30.25;100015.50;5097836;28;1070;-19
2023/04/05 00:54:11;;;;;;;;;;;;;;;24.23;30.58;100013.72;5065756;28;1102;-19
2023/04/05 00:56:37;;;;;;;;;;;;;;;24.44;30.01;100021.91;5062748;28;853;-20
2023/04/05 00:59:03;;;;;;;;;;;;;;;24.37;30.08;100017.47;5096999;28;1975;-20
2023/04/05 01:01:29;;;;;;;;;;;;;;;24.28;30.26;100020.22;5097337;28;1106;-20
2023/04/05 01:03:58;;;;;;;;;;;;;;;24.37;29.99;100012.09;5078873;28;1207;-20
2023/04/05 01:06:33;;;;;;;;;;;;;;;24.15;30.52;100014.59;5078746;28;1110;-20
2023/04/05 01:09:19;;;;;;;;;;;;;;;24.18;30.65;100017.78;5078539;28;913;-19
2023/04/05 01:11:45;;;;;;;;;;;;;;;24.26;30.64;100030.31;5078539;28;1656;-20
2023/04/05 01:14:11;;;;;;;;;;;;;;;24.19;30.48;100021.31;5061855;28;1042;-20
2023/04/05 01:16:37;;;;;;;;;;;;;;;24.18;30.59;100020.47;5097201;28;1133;-20
2023/04/05 01:19:03;;;;;;;;;;;;;;;24.30;30.43;100023.56;5078356;28;1914;-20
2023/04/05 01:21:28;;;;;;;;;;;;;;;24.20;30.49;100025.66;5078945;28;1227;-19
2023/04/05 01:24:00;;;;;;;;;;;;;;;24.14;30.63;100026.38;5078305;28;1139;-20
2023/04/05 01:26:43;;;;;;;;;;;;;;;24.21;30.62;100025.50;5078566;28;1131;-19
2023/04/05 01:29:24;;;;;;;;;;;;;;;24.34;30.35;100026.72;5096170;28;1313;-19
2023/04/05 01:32:16;;;;;;;;;;;;;;;24.17;30.41;100020.66;5077878;28;991;-20
2023/04/05 01:34:44;;;;;;;;;;;;;;;24.19;30.70;100024.81;5052749;28;1143;-20
2023/04/05 01:37:14;;;;;;;;;;;;;;;24.25;30.56;100035.88;5078456;28;1314;-19
2023/04/05 01:39:40;;;;;;;;;;;;;;;24.25;30.29;100031.34;5078359;28;1982;-20
2023/04/05 01:42:05;;;;;;;;;;;;;;;24.21;30.54;100030.88;5077977;28;1385;-19
2023/04/05 01:44:31;;;;;;;;;;;;;;;24.16;30.59;100043.13;5088102;28;828;-20
2023/04/05 01:46:57;;;;;;;;;;;;;;;24.28;30.44;100036.34;5077542;28;1118;-20
2023/04/05 01:49:23;;;;;;;;;;;;;;;24.19;30.43;100046.31;5061502;28;1150;-20
2023/04/05 01:51:48;;;;;;;;;;;;;;;24.20;30.48;100039.97;5078331;28;1141;-20
2023/04/05 01:54:14;;;;;;;;;;;;;;;24.04;30.70;100045.44;5096234;28;1175;-19
2023/04/05 01:56:42;;;;;;;;;;;;;;;24.04;30.84;100040.88;5076405;28;1112;-20
2023/04/05 01:59:07;;;;;;;;;;;;;;;24.09;30.62;100041.16;5075850;28;1981;-20
2023/04/05 02:01:33;;;;;;;;;;;;;;;24.04;30.79;100035.50;5090922;28;1114;-20
2023/04/05 02:03:58;;;;;;;;;;;;;;;24.31;30.20;100037.81;5096169;28;1058;-20
2023/04/05 02:06:25;;;;;;;;;;;;;;;24.13;30.61;100041.66;5095602;28;1112;-20
2023/04/05 02:08:51;;;;;;;;;;;;;;;24.17;30.62;100047.53;5096129;28;987;-20
2023/04/05 02:11:16;;;;;;;;;;;;;;;24.08;30.73;100036.81;5077970;28;1346;-20
2023/04/05 02:13:42;;;;;;;;;;;;;;;26.10;27.86;100047.84;5069773;28;2526;-20
2023/04/05 02:16:07;;;;;;;;;;;;;;;26.26;26.98;100045.88;5090513;28;1075;-20
2023/04/05 02:18:33;;;;;;;;;;;;;;;25.00;28.79;100046.78;5078175;28;1906;-20
2023/04/05 02:21:06;;;;;;;;;;;;;;;25.34;29.10;100035.59;5077750;28;1147;-19
2023/04/05 02:23:32;;;;;;;;;;;;;;;25.76;28.45;100052.88;5096167;28;1071;-19
2023/04/05 02:25:58;;;;;;;;;;;;;;;26.25;27.61;100044.22;5095731;28;1083;-19
2023/04/05 02:28:23;;;;;;;;;;;;;;;26.34;27.46;100053.03;5096221;28;1135;-20
2023/04/05 02:30:52;;;;;;;;;;;;;;;26.20;27.41;100055.59;5096226;28;1143;-19
2023/04/05 02:33:18;;;;;;;;;;;;;;;26.31;27.61;100054.22;5095577;28;1007;-19
2023/04/05 02:35:43;;;;;;;;;;;;;;;26.56;27.17;100043.03;5095892;28;1248;-19
2023/04/05 02:38:09;;;;;;;;;;;;;;;26.26;27.07;100052.13;5095468;28;1909;-19
2023/04/05 02:40:35;;;;;;;;;;;;;;;25.07;29.13;100055.75;5096408;28;1125;-20
2023/04/05 02:43:01;;;;;;;;;;;;;;;26.01;28.07;100052.50;5099692;28;1172;-19
2023/04/05 02:45:26;;;;;;;;;;;;;;;27.11;26.40;100053.16;5078136;28;1293;-19
2023/04/05 02:47:54;;;;;;;;;;;;;;;26.94;26.22;100049.94;5078178;28;1253;-19
2023/04/05 02:50:22;;;;;;;;;;;;;;;25.57;28.47;100046.22;5078897;28;1225;-19
2023/04/05 02:52:48;;;;;;;;;;;;;;;25.77;28.32;100043.78;5081150;28;1281;-19
2023/04/05 02:55:14;;;;;;;;;;;;;;;26.11;27.63;100038.72;5081457;28;1142;-19
2023/04/05 02:57:41;;;;;;;;;;;;;;;26.47;27.09;100044.22;5080858;28;1194;-19
2023/04/05 03:00:27;;;;;;;;;;;;;;;26.62;26.92;100047.66;5099119;28;1045;-19
2023/04/05 03:02:55;;;;;;;;;;;;;;;26.60;27.08;100055.09;5081342;28;1281;-19
2023/04/05 03:05:21;;;;;;;;;;;;;;;26.79;27.24;100052.75;5081324;28;1265;-18
2023/04/05 03:07:51;;;;;;;;;;;;;;;28.25;25.04;100048.28;5098904;28;1122;-19
2023/04/05 03:10:21;;;;;;;;;;;;;;;26.59;26.82;100049.91;5079977;28;1221;-19
2023/04/05 03:12:52;;;;;;;;;;;;;;;25.62;28.44;100059.97;5069028;28;1134;-19
2023/04/05 03:15:22;;;;;;;;;;;;;;;26.98;26.72;100058.44;5080976;28;1260;-19
2023/04/05 03:17:48;;;;;;;;;;;;;;;27.44;26.21;100073.25;5079973;28;1258;-19
2023/04/05 03:20:13;;;;;;;;;;;;;;;26.84;25.07;100066.47;5071321;28;1914;-20
2023/04/05 03:22:40;;;;;;;;;;;;;;;25.70;25.16;100075.19;5067392;28;1547;-20
2023/04/05 03:25:06;;;;;;;;;;;;;;;26.31;22.81;100069.59;5081050;28;1359;-20
2023/04/05 03:27:37;;;;;;;;;;;;;;;26.86;21.41;100071.69;5080597;28;1235;-20
2023/04/05 03:30:08;;;;;;;;;;;;;;;28.08;19.12;100086.53;5067918;28;952;-20
2023/04/05 03:32:39;;;;;;;;;;;;;;;28.28;19.00;100088.41;5066999;28;1416;-19
2023/04/05 03:35:24;;;;;;;;;;;;;;;27.70;18.58;100090.63;5087908;28;1227;-20
2023/04/05 03:37:50;;;;;;;;;;;;;;;28.24;18.64;100095.31;5080858;28;1420;-21
2023/04/05 03:40:16;;;;;;;;;;;;;;;28.70;18.03;100090.09;5074116;28;1977;-20
2023/04/05 03:42:43;;;;;;;;;;;;;;;28.18;19.21;100096.09;5078675;28;1301;-20
2023/04/05 03:45:09;;;;;;;;;;;;;;;28.19;19.13;100098.63;5069192;28;1203;-21
2023/04/05 03:47:34;;;;;;;;;;;;;;;26.49;19.19;100104.19;5060559;28;1205;-19
2023/04/05 03:50:03;;;;;;;;;;;;;;;22.52;22.75;100091.72;5080341;28;1154;-21
2023/04/05 03:52:30;;;;;;;;;;;;;;;25.22;20.23;100097.16;5080024;28;1114;-19
2023/04/05 03:54:56;;;;;;;;;;;;;;;24.37;23.97;100107.00;5071037;28;1334;-19
2023/04/05 03:57:23;;;;;;;;;;;;;;;26.25;22.16;100100.84;5075381;28;1263;-18
2023/04/05 03:59:52;;;;;;;;;;;;;;;28.40;20.14;100106.75;5060302;28;1996;-19
2023/04/05 04:02:17;;;;;;;;;;;;;;;28.22;21.38;100108.19;5060301;28;1107;-19
2023/04/05 04:04:43;;;;;;;;;;;;;;;27.39;22.93;100119.75;5071975;28;1099;-19
2023/04/05 04:07:09;;;;;;;;;;;;;;;27.22;23.77;100130.06;5080366;28;1628;-19
2023/04/05 04:09:35;;;;;;;;;;;;;;;27.52;23.32;100139.78;5079922;28;1286;-21
2023/04/05 04:12:06;;;;;;;;;;;;;;;27.74;23.26;100128.88;5079686;28;1229;-19
2023/04/05 04:14:35;;;;;;;;;;;;;;;27.81;23.37;100123.50;5079933;28;1147;-19
2023/04/05 04:17:26;;;;;;;;;;;;;;;28.05;23.53;100124.81;5097992;28;1102;-19
2023/04/05 04:20:17;;;;;;;;;;;;;;;28.17;23.57;100127.75;5080546;28;1977;-19
2023/04/05 04:23:03;;;;;;;;;;;;;;;28.42;23.37;100145.28;5078565;28;1606;-19
2023/04/05 04:25:53;;;;;;;;;;;;;;;28.61;23.10;100151.75;5078541;28;1166;-19
2023/04/05 04:28:42;;;;;;;;;;;;;;;28.82;22.71;100147.16;5097974;28;1118;-19
2023/04/05 04:31:48;;;;;;;;;;;;;;;28.94;22.99;100153.59;5076097;28;1460;-20
2023/04/05 04:34:35;;;;;;;;;;;;;;;29.11;22.84;100155.91;5072789;28;1178;-21
2023/04/05 04:37:21;;;;;;;;;;;;;;;27.46;25.21;100157.59;5075424;28;1139;-19
2023/04/05 04:40:16;;;;;;;;;;;;;;;28.14;24.63;100159.75;5075114;28;1906;-20
2023/04/05 04:43:02;;;;;;;;;;;;;;;29.54;22.72;100169.97;5065127;28;1011;-20
2023/04/05 04:45:48;;;;;;;;;;;;;;;29.41;22.76;100171.66;5090957;28;1162;-20
2023/04/05 04:48:20;;;;;;;;;;;;;;;28.65;23.50;100157.56;5076185;28;1122;-20
2023/04/05 04:51:15;;;;;;;;;;;;;;;27.51;24.77;100163.25;5073747;28;1329;-20
2023/04/05 04:53:40;;;;;;;;;;;;;;;27.10;25.62;100151.38;5097486;28;1129;-19
2023/04/05 04:56:06;;;;;;;;;;;;;;;27.01;25.98;100153.38;5097120;28;1035;-20
2023/04/05 04:58:32;;;;;;;;;;;;;;;26.83;26.28;100158.41;5096463;28;1905;-21
2023/04/05 05:01:07;;;;;;;;;;;;;;;26.45;26.37;100165.78;5079061;28;1208;-19
2023/04/05 05:03:33;;;;;;;;;;;;;;;26.23;26.72;100154.09;5096212;28;1154;-19
2023/04/05 05:06:00;;;;;;;;;;;;;;;26.40;26.69;100154.72;5097477;28;1130;-19
2023/04/05 05:08:29;;;;;;;;;;;;;;;26.36;27.04;100159.66;5079103;28;1405;-19
2023/04/05 05:10:55;;;;;;;;;;;;;;;26.31;27.23;100158.56;5096508;28;943;-19
2023/04/05 05:13:21;;;;;;;;;;;;;;;26.02;27.56;100145.81;5096800;28;1019;-20
2023/04/05 05:15:47;;;;;;;;;;;;;;;26.17;27.43;100155.72;5096865;28;1126;-20
2023/04/05 05:18:13;;;;;;;;;;;;;;;26.13;27.58;100149.03;5097232;28;1975;-19
2023/04/05 05:20:38;;;;;;;;;;;;;;;26.25;27.16;100152.91;5096601;28;1082;-20
2023/04/05 05:23:04;;;;;;;;;;;;;;;26.22;27.79;100156.00;5082594;28;899;-19
2023/04/05 05:25:30;;;;;;;;;;;;;;;26.16;27.58;100151.34;5096545;28;1201;-20
2023/04/05 05:27:56;;;;;;;;;;;;;;;26.36;27.61;100148.88;5096896;28;1155;-19
2023/04/05 05:30:23;;;;;;;;;;;;;;;26.10;27.23;100154.81;5078564;28;1095;-19
2023/04/05 05:32:48;;;;;;;;;;;;;;;25.97;27.90;100160.88;5090128;28;1038;-19
2023/04/05 05:35:14;;;;;;;;;;;;;;;26.01;27.47;100163.00;5083425;28;895;-19
2023/04/05 05:37:40;;;;;;;;;;;;;;;25.95;27.58;100177.25;5096648;28;1008;-19
2023/04/05 05:40:06;;;;;;;;;;;;;;;25.79;27.75;100157.56;5096464;28;1914;-19
2023/04/05 05:42:32;;;;;;;;;;;;;;;25.72;28.00;100167.44;5096655;28;1030;-19
2023/04/05 05:45:01;;;;;;;;;;;;;;;25.82;27.92;100163.59;5096133;28;1114;-19
2023/04/05 05:47:27;;;;;;;;;;;;;;;26.01;28.03;100157.63;5082948;28;1198;-19
2023/04/05 05:49:52;;;;;;;;;;;;;;;26.02;27.88;100161.16;5096297;28;1141;-19
2023/04/05 05:52:18;;;;;;;;;;;;;;;25.75;28.43;100164.38;5096277;28;1014;-20
2023/04/05 05:54:44;;;;;;;;;;;;;;;25.55;28.55;100164.91;5096190;28;1062;-20
2023/04/05 05:57:09;;;;;;;;;;;;;;;25.71;28.33;100168.44;5096002;28;1226;-19
2023/04/05 05:59:35;;;;;;;;;;;;;;;25.63;29.39;100164.00;5095944;28;1981;-20
2023/04/05 06:02:00;;;;;;;;;;;;;;;25.73;29.78;100174.50;5094801;28;1103;-19
2023/04/05 06:04:27;;;;;;;;;;;;;;;25.91;28.67;100171.41;5076559;28;1044;-19
2023/04/05 06:06:53;;;;;;;;;;;;;;;25.70;29.65;100174.88;5077225;28;1198;-20
2023/04/05 06:09:19;;;;;;;;;;;;;;;25.54;28.87;100182.09;5096223;28;1134;-19
2023/04/05 06:11:44;;;;;;;;;;;;;;;25.48;28.87;100180.13;5081613;28;1044;-19
2023/04/05 06:14:10;;;;;;;;;;;;;;;25.50;28.98;100177.25;5088151;28;1028;-19
2023/04/05 06:16:35;;;;;;;;;;;;;;;25.51;29.04;100178.91;5099790;28;1106;-20
2023/04/05 06:19:01;;;;;;;;;;;;;;;25.66;29.23;100187.03;5100595;28;1909;-20
2023/04/05 06:21:27;;;;;;;;;;;;;;;25.82;29.20;100177.94;5086538;28;1136;-20
2023/04/05 06:23:52;;;;;;;;;;;;;;;25.86;29.11;100184.59;5100060;28;1161;-19
2023/04/05 06:26:19;;;;;;;;;;;;;;;25.51;29.28;100185.16;5100197;28;1075;-20
2023/04/05 06:28:46;;;;;;;;;;;;;;;25.70;29.33;100191.03;5100085;28;1041;-19
2023/04/05 06:31:13;;;;;;;;;;;;;;;25.74;29.11;100195.00;5099904;28;1066;-19
2023/04/05 06:33:38;;;;;;;;;;;;;;;25.70;29.36;100207.19;5099904;28;1156;-19
2023/04/05 06:36:04;;;;;;;;;;;;;;;25.51;28.99;100208.53;5099798;28;1146;-19
2023/04/05 06:38:30;;;;;;;;;;;;;;;25.21;30.59;100205.84;5088043;28;1909;-20
2023/04/05 06:40:55;;;;;;;;;;;;;;;25.21;29.64;100216.63;5098950;28;1043;-19
2023/04/05 06:43:21;;;;;;;;;;;;;;;25.26;29.43;100216.88;5100177;28;1098;-19
2023/04/05 06:45:46;;;;;;;;;;;;;;;24.96;29.59;100220.34;5099400;28;1099;-19
2023/04/05 06:48:12;;;;;;;;;;;;;;;25.05;29.45;100216.59;5099825;28;1141;-19
2023/04/05 06:50:38;;;;;;;;;;;;;;;24.83;29.86;100229.00;5099479;28;1134;-19
2023/04/05 06:53:03;;;;;;;;;;;;;;;25.23;29.32;100238.78;5099375;28;1193;-18
2023/04/05 06:55:29;;;;;;;;;;;;;;;25.38;30.18;100233.41;5099528;28;1070;-19
2023/04/05 06:57:55;;;;;;;;;;;;;;;25.56;29.27;100233.91;5098868;28;1093;-20
2023/04/05 07:00:20;;;;;;;;;;;;;;;25.48;29.48;100238.53;5099504;28;1909;-19
2023/04/05 07:02:46;;;;;;;;;;;;;;;25.66;29.27;100238.19;5099103;28;1109;-19
2023/04/05 07:05:12;;;;;;;;;;;;;;;25.62;29.16;100242.28;5086464;28;1130;-19
2023/04/05 07:07:38;;;;;;;;;;;;;;;25.78;28.99;100235.88;5093275;28;1261;-18
2023/04/05 07:10:04;;;;;;;;;;;;;;;25.84;28.93;100237.00;5099261;28;1131;-19
2023/04/05 07:12:29;;;;;;;;;;;;;;;25.93;28.69;100241.25;5082318;28;1162;-19
2023/04/05 07:14:55;;;;;;;;;;;;;;;25.75;28.48;100252.44;5077886;28;1301;-19
2023/04/05 07:17:20;;;;;;;;;;;;;;;25.91;28.93;100254.09;5078808;28;1142;-19
2023/04/05 07:19:46;;;;;;;;;;;;;;;25.91;28.94;100246.84;5078859;28;1984;-19
2023/04/05 07:22:12;;;;;;;;;;;;;;;26.07;28.65;100250.38;5090814;28;1008;-20
2023/04/05 07:24:37;;;;;;;;;;;;;;;25.91;28.68;100249.53;5081269;28;1081;-19
2023/04/05 07:27:03;;;;;;;;;;;;;;;25.87;28.71;100252.81;5089246;28;1047;-19
2023/04/05 07:29:29;;;;;;;;;;;;;;;25.97;28.62;100247.97;5099096;28;1126;-19
2023/04/05 07:31:54;;;;;;;;;;;;;;;25.98;28.36;100248.78;5098586;28;1115;-19
2023/04/05 07:34:20;;;;;;;;;;;;;;;26.00;28.48;100258.38;5098730;28;1210;-19
2023/04/05 07:36:45;;;;;;;;;;;;;;;25.62;28.24;100258.44;5087103;28;958;-18
2023/04/05 07:39:11;;;;;;;;;;;;;;;24.90;28.88;100248.81;5096597;28;1902;-19
2023/04/05 07:41:37;;;;;;;;;;;;;;;23.93;30.18;100245.44;5098522;28;1077;-19
2023/04/05 07:44:02;;;;;;;;;;;;;;;24.09;29.72;100239.16;5099320;28;1107;-19
2023/04/05 07:46:28;;;;;;;;;;;;;;;25.00;28.55;100245.03;5098499;28;1066;-19
2023/04/05 07:48:54;;;;;;;;;;;;;;;25.01;28.71;100255.63;5098620;28;1122;-19
2023/04/05 07:51:20;;;;;;;;;;;;;;;24.99;28.62;100251.47;5098378;28;1078;-25
2023/04/05 07:53:45;;;;;;;;;;;;;;;25.04;28.40;100252.56;5098488;28;1098;-19
2023/04/05 07:56:12;;;;;;;;;;;;;;;25.46;28.00;100256.75;5098294;28;1095;-19
2023/04/05 07:58:40;;;;;;;;;;;;;;;25.24;28.49;100256.63;5097992;28;1906;-19
2023/04/05 08:01:07;;;;;;;;;;;;;;;25.41;28.42;100254.59;5098460;28;1062;-19
2023/04/05 08:03:35;;;;;;;;;;;;;;;25.49;28.48;100261.78;5093084;28;1131;-19
2023/04/05 08:06:11;;;;;;;;;;;;;;;25.46;28.35;100254.88;5077320;28;1125;-19
2023/04/05 08:08:37;;;;;;;;;;;;;;;25.63;28.21;100263.66;5098238;28;1123;-19
2023/04/05 08:11:02;;;;;;;;;;;;;;;25.62;28.41;100266.50;5098082;28;888;-19
2023/04/05 08:13:28;;;;;;;;;;;;;;;25.63;28.40;100266.34;5083817;28;1103;-19
2023/04/05 08:15:57;;;;;;;;;;;;;;;25.73;28.19;100274.16;5098118;28;1061;-19
2023/04/05 08:18:22;;;;;;;;;;;;;;;25.80;28.25;100277.81;5090641;28;1972;-20
2023/04/05 08:20:52;;;;;;;;;;;;;;;25.53;28.42;100277.38;5097858;28;1142;-19
2023/04/05 08:23:18;;;;;;;;;;;;;;;25.39;27.65;100270.94;5097311;28;1042;-19
2023/04/05 08:25:43;;;;;;;;;;;;;;;24.78;28.40;100258.28;5085416;28;1078;-19
2023/04/05 08:28:09;;;;;;;;;;;;;;;25.14;28.35;100278.41;5096225;28;1055;-19
2023/04/05 08:30:35;;;;;;;;;;;;;;;25.26;28.18;100276.09;5098081;28;1146;-19
2023/04/05 08:33:01;;;;;;;;;;;;;;;25.28;28.27;100269.53;5097635;28;1446;-19
2023/04/05 08:35:26;;;;;;;;;;;;;;;25.37;27.83;100274.84;5097327;28;1182;-19
2023/04/05 08:37:52;;;;;;;;;;;;;;;25.53;27.61;100280.06;5097187;28;1141;-19
2023/04/05 08:40:18;;;;;;;;;;;;;;;25.54;27.94;100286.31;5097221;28;1980;-19
2023/04/05 08:43:06;;;;;;;;;;;;;;;25.60;27.64;100288.25;5079590;28;1225;-20
2023/04/05 08:45:32;;;;;;;;;;;;;;;25.49;27.87;100288.69;5069122;28;1198;-19
2023/04/05 08:47:58;;;;;;;;;;;;;;;25.56;27.71;100295.84;5070145;28;880;-19
2023/04/05 08:50:23;;;;;;;;;;;;;;;25.55;27.55;100293.34;5092585;28;1070;-19
2023/04/05 08:52:49;;;;;;;;;;;;;;;25.66;27.66;100294.78;5079251;28;1213;-19
2023/04/05 08:55:15;;;;;;;;;;;;;;;25.54;27.60;100289.81;5097126;28;1133;-19
2023/04/05 08:57:42;;;;;;;;;;;;;;;25.41;27.92;100290.44;5096859;28;1131;-19
2023/04/05 09:00:07;;;;;;;;;;;;;;;25.46;27.69;100297.97;5088199;28;1979;-19
2023/04/05 09:02:33;;;;;;;;;;;;;;;25.42;27.81;100293.97;5077989;28;1156;-19
2023/04/05 09:04:59;;;;;;;;;;;;;;;25.68;27.48;100295.44;5097331;28;1043;-18
2023/04/05 09:07:24;;;;;;;;;;;;;;;25.54;27.38;100292.50;5079198;28;1241;-19
2023/04/05 09:09:51;;;;;;;;;;;;;;;25.26;27.62;100297.63;5078654;28;1155;-19
2023/04/05 09:12:17;;;;;;;;;;;;;;;25.09;26.94;100287.00;5077950;28;1171;-18
2023/04/05 09:14:43;;;;;;;;;;;;;;;25.06;26.61;100295.44;5095959;28;1194;-20
2023/04/05 09:17:09;;;;;;;;;;;;;;;25.20;27.27;100288.44;5078957;28;1284;-18
2023/04/05 09:19:35;;;;;;;;;;;;;;;24.98;27.60;100290.97;5079290;28;1906;-19
2023/04/05 09:22:01;;;;;;;;;;;;;;;24.89;27.64;100300.09;5086130;28;1125;-18
2023/04/05 09:24:31;;;;;;;;;;;;;;;24.96;27.49;100303.75;5093363;28;1093;-19
2023/04/05 09:27:05;;;;;;;;;;;;;;;25.01;27.72;100306.75;5087287;28;1054;-18
2023/04/05 09:29:30;;;;;;;;;;;;;;;25.22;27.17;100318.72;5078572;28;1169;-19
2023/04/05 09:31:57;;;;;;;;;;;;;;;25.01;27.52;100312.13;5078012;28;1312;-19
2023/04/05 09:34:22;;;;;;;;;;;;;;;24.93;27.36;100299.59;5096597;28;1126;-19
2023/04/05 09:36:48;;;;;;;;;;;;;;;25.03;27.20;100302.03;5096081;28;1511;-18
2023/04/05 09:39:19;;;;;;;;;;;;;;;25.25;27.40;100299.50;5095750;28;1917;-19
2023/04/05 09:41:44;;;;;;;;;;;;;;;25.32;27.32;100296.94;5096607;28;1067;-19
2023/04/05 09:44:10;;;;;;;;;;;;;;;25.22;27.29;100299.88;5078277;28;1210;-19
2023/04/05 09:46:38;;;;;;;;;;;;;;;25.24;26.98;100297.81;5096371;28;1141;-19
2023/04/05 09:49:05;;;;;;;;;;;;;;;25.10;27.28;100301.31;5090546;28;1113;-18
2023/04/05 09:51:32;;;;;;;;;;;;;;;25.31;27.23;100296.09;5075380;28;1186;-19
2023/04/05 09:54:04;;;;;;;;;;;;;;;25.27;27.34;100308.25;5094929;28;1066;-19
2023/04/05 09:56:31;;;;;;;;;;;;;;;25.32;26.91;100307.69;5096431;28;1193;-18
2023/04/05 09:59:01;;;;;;;;;;;;;;;25.31;27.00;100308.69;5095700;28;1978;-19
2023/04/05 10:01:31;;;;;;;;;;;;;;;25.23;27.47;100301.53;5096586;28;1241;-19
2023/04/05 10:03:57;;;;;;;;;;;;;;;25.44;26.91;100300.03;5096383;28;1221;-18
2023/04/05 10:06:22;;;;;;;;;;;;;;;25.37;27.28;100307.16;5083156;28;1081;-19
2023/04/05 10:08:48;;;;;;;;;;;;;;;25.33;27.08;100309.34;5096621;28;1145;-18
2023/04/05 10:11:13;;;;;;;;;;;;;;;25.25;27.23;100304.03;5096248;28;1117;-18
2023/04/05 10:13:39;;;;;;;;;;;;;;;25.38;27.10;100311.50;5096157;28;1476;-18
2023/04/05 10:16:05;;;;;;;;;;;;;;;25.36;26.93;100316.25;5078373;28;1125;-18
2023/04/05 10:18:38;;;;;;;;;;;;;;;25.41;26.94;100309.28;5078229;28;1898;-19
2023/04/05 10:21:03;;;;;;;;;;;;;;;25.30;27.11;100305.19;5079316;28;1229;-18
2023/04/05 10:23:30;;;;;;;;;;;;;;;25.37;26.88;100310.69;5095954;28;1130;-19
2023/04/05 10:25:59;;;;;;;;;;;;;;;25.45;27.04;100312.47;5065075;28;1117;-19
2023/04/05 10:28:34;;;;;;;;;;;;;;;25.27;27.10;100312.78;5096422;28;1118;-19
2023/04/05 10:31:09;;;;;;;;;;;;;;;25.36;27.00;100327.03;5095919;28;1047;-18
2023/04/05 10:33:35;;;;;;;;;;;;;;;25.20;27.47;100318.06;5096375;28;1205;-19
2023/04/05 10:36:20;;;;;;;;;;;;;;;25.07;27.25;100326.75;5078001;28;1111;-19
2023/04/05 10:38:59;;;;;;;;;;;;;;;25.41;27.32;100332.69;5096060;28;1906;-19
2023/04/05 10:41:25;;;;;;;;;;;;;;;25.71;27.03;100335.47;5096323;28;1041;-19
2023/04/05 10:43:50;;;;;;;;;;;;;;;25.76;27.06;100343.84;5095834;28;1098;-19
2023/04/05 10:46:22;;;;;;;;;;;;;;;25.81;27.05;100343.28;5078017;28;1179;-19
2023/04/05 10:48:51;;;;;;;;;;;;;;;26.07;26.63;100343.88;5095700;28;1062;-19
2023/04/05 10:51:17;;;;;;;;;;;;;;;25.95;26.83;100348.88;5078469;28;1066;-18
2023/04/05 10:53:42;;;;;;;;;;;;;;;25.41;27.60;100344.28;5078103;28;1133;-19
2023/04/05 10:56:08;;;;;;;;;;;;;;;25.58;27.61;100352.22;5095768;28;1014;-19
2023/04/05 10:58:34;;;;;;;;;;;;;;;25.68;27.55;100357.38;5095721;28;1901;-18
2023/04/05 11:01:00;;;;;;;;;;;;;;;25.70;27.69;100359.91;5085065;28;911;-19
2023/04/05 11:03:40;;;;;;;;;;;;;;;25.66;27.56;100352.19;5077380;28;1145;-18
2023/04/05 11:06:21;;;;;;;;;;;;;;;25.60;27.81;100350.19;5092667;28;1038;-19
2023/04/05 11:08:47;;;;;;;;;;;;;;;25.73;27.83;100346.06;5087522;28;1158;-19
2023/04/05 11:11:17;;;;;;;;;;;;;;;25.71;27.95;100356.19;5081567;28;1228;-19
2023/04/05 11:13:55;;;;;;;;;;;;;;;25.62;27.96;100350.84;5098874;28;920;-18
2023/04/05 11:16:21;;;;;;;;;;;;;;;25.82;27.71;100349.50;5099575;28;1018;-19
2023/04/05 11:18:47;;;;;;;;;;;;;;;25.86;27.87;100353.53;5093541;28;2008;-19
2023/04/05 11:21:18;;;;;;;;;;;;;;;25.98;27.74;100352.03;5110692;28;1124;-19
2023/04/05 11:24:01;;;;;;;;;;;;;;;25.99;27.54;100345.63;5099606;28;1172;-18
2023/04/05 11:26:36;;;;;;;;;;;;;;;25.99;27.45;100344.78;5102352;28;1147;-19
2023/04/05 11:29:01;;;;;;;;;;;;;;;26.08;27.49;100349.06;5104824;28;1169;-18
2023/04/05 11:31:27;;;;;;;;;;;;;;;26.09;27.18;100349.91;5099283;28;1051;-18
2023/04/05 11:33:53;;;;;;;;;;;;;;;26.00;27.42;100347.31;5099157;28;1055;-18
2023/04/05 11:36:34;;;;;;;;;;;;;;;26.00;27.78;100352.69;5098820;28;1208;-18
2023/04/05 11:39:21;;;;;;;;;;;;;;;25.86;28.02;100346.25;5082280;28;1902;-18
2023/04/05 11:42:02;;;;;;;;;;;;;;;25.56;28.43;100347.03;5091432;28;1048;-20
2023/04/05 11:44:50;;;;;;;;;;;;;;;25.62;28.44;100348.16;5086929;28;1019;-20
2023/04/05 11:47:16;;;;;;;;;;;;;;;25.74;28.13;100351.25;5099019;28;1118;-19
2023/04/05 11:49:41;;;;;;;;;;;;;;;25.90;28.46;100361.06;5087646;28;979;-19
2023/04/05 11:52:11;;;;;;;;;;;;;;;26.16;27.42;100359.75;5080707;28;1281;-21
2023/04/05 11:54:36;;;;;;;;;;;;;;;25.56;28.72;100351.56;5078626;28;1206;-21
2023/04/05 11:57:02;;;;;;;;;;;;;;;25.79;28.23;100345.34;5078362;28;1320;-20
2023/04/05 11:59:37;;;;;;;;;;;;;;;26.02;27.95;100347.13;5086039;28;1984;-20
2023/04/05 12:02:04;;;;;;;;;;;;;;;26.17;27.71;100356.03;5085454;28;862;-20
2023/04/05 12:04:30;;;;;;;;;;;;;;;26.23;27.79;100338.28;5098320;28;1030;-20
2023/04/05 12:07:09;;;;;;;;;;;;;;;26.23;27.28;100342.81;5098738;28;1059;-20
2023/04/05 12:09:35;;;;;;;;;;;;;;;26.28;27.40;100340.41;5098144;28;1229;-20
2023/04/05 12:12:01;;;;;;;;;;;;;;;26.37;27.48;100346.56;5079618;28;1186;-20
2023/04/05 12:14:26;;;;;;;;;;;;;;;26.36;27.31;100344.91;5083733;28;979;-20
2023/04/05 12:16:52;;;;;;;;;;;;;;;26.34;27.67;100345.06;5078290;28;1202;-20
2023/04/05 12:19:17;;;;;;;;;;;;;;;26.51;27.33;100351.09;5078490;28;1953;-21
2023/04/05 12:21:43;;;;;;;;;;;;;;;26.45;27.29;100341.09;5076841;28;1062;-20
2023/04/05 12:24:08;;;;;;;;;;;;;;;26.37;27.55;100343.88;5090661;28;1076;-21
2023/04/05 12:26:34;;;;;;;;;;;;;;;26.25;27.45;100340.78;5079046;28;1054;-20
2023/04/05 12:29:02;;;;;;;;;;;;;;;26.28;27.85;100352.03;5077685;28;1158;-20
2023/04/05 12:31:39;;;;;;;;;;;;;;;26.01;28.30;100334.66;5097465;28;1015;-21
2023/04/05 12:34:05;;;;;;;;;;;;;;;26.09;28.43;100331.84;5097898;28;1091;-20
2023/04/05 12:36:31;;;;;;;;;;;;;;;25.91;28.75;100332.22;5098202;28;1063;-21
2023/04/05 12:38:57;;;;;;;;;;;;;;;26.06;28.22;100334.94;5078695;28;1902;-21
2023/04/05 12:41:28;;;;;;;;;;;;;;;26.41;27.44;100331.69;5076738;28;1266;-21
2023/04/05 12:43:59;;;;;;;;;;;;;;;26.59;27.51;100328.56;5097576;28;1063;-20
2023/04/05 12:46:37;;;;;;;;;;;;;;;26.54;27.83;100336.41;5097477;28;1159;-22
2023/04/05 12:49:03;;;;;;;;;;;;;;;26.41;28.30;100334.38;5097761;28;1205;-19
2023/04/05 12:51:30;;;;;;;;;;;;;;;26.49;27.77;100338.84;5083841;28;1055;-20
2023/04/05 12:53:55;;;;;;;;;;;;;;;26.72;27.71;100325.22;5079288;28;1157;-20